Time;durP1;ratioP1;P1;durP2;ratioP2;P2;SDS_P1;SDS_P2;PMS_P1;PMS_P2;Temp;Humidity;BMP_temperature;BMP_pressure;BME280_temperature;BME280_humidity;BME280_pressure;Samples;Min_cycle;Max_cycle;Signal;HPM_P1;HPM_P2
2023/04/14 00:01:51;;;;;;;;;2.00;2.00;;;;;10.98;55.87;100529.47;5063369;28;45457;-79
2023/04/14 00:04:17;;;;;;;;;1.33;1.00;;;;;10.89;55.63;100503.78;5066849;28;45613;-78
2023/04/14 00:06:42;;;;;;;;;3.00;3.00;;;;;10.43;55.80;100438.38;5064602;28;47332;-79
2023/04/14 00:09:08;;;;;;;;;2.00;2.00;;;;;8.31;55.62;100100.66;5068380;28;45840;-80
2023/04/14 00:11:33;;;;;;;;;3.00;2.00;;;;;10.64;56.18;100484.13;5063782;28;45510;-79
2023/04/14 00:14:01;;;;;;;;;3.00;2.67;;;;;10.77;55.82;100511.16;5081817;28;45225;-77
2023/04/14 00:16:28;;;;;;;;;2.00;2.00;;;;;10.02;56.02;100371.50;5081738;28;45877;-78
2023/04/14 00:18:54;;;;;;;;;3.67;3.67;;;;;10.93;56.19;100510.47;5058915;28;46168;-77
2023/04/14 00:21:19;;;;;;;;;2.00;2.00;;;;;10.57;56.00;100451.97;5042320;28;45304;-77
2023/04/14 00:23:45;;;;;;;;;2.67;2.67;;;;;10.39;55.55;100413.91;5042076;28;45578;-79
2023/04/14 00:26:10;;;;;;;;;3.33;3.33;;;;;10.79;55.63;100497.69;5041908;28;47276;-78
2023/04/14 00:28:35;;;;;;;;;2.67;2.67;;;;;10.71;55.90;100484.34;5060121;28;45349;-77
2023/04/14 00:31:01;;;;;;;;;2.67;2.67;;;;;10.49;55.80;100454.53;5060346;28;45451;-77
2023/04/14 00:33:26;;;;;;;;;3.67;3.67;;;;;10.78;56.21;100498.69;5060667;28;45535;-78
2023/04/14 00:35:51;;;;;;;;;5.33;4.00;;;;;10.27;56.50;100423.09;5042558;28;47955;-77
2023/04/14 00:38:17;;;;;;;;;5.67;4.00;;;;;10.43;56.04;100443.69;5058462;28;45494;-78
2023/04/14 00:40:42;;;;;;;;;3.33;3.33;;;;;10.47;56.32;100448.53;5041708;28;45495;-79
2023/04/14 00:43:08;;;;;;;;;3.67;3.00;;;;;10.74;56.34;100490.19;5059005;28;45231;-77
2023/04/14 00:45:43;;;;;;;;;4.00;2.00;;;;;10.45;56.69;100455.00;5059418;28;45826;-77
2023/04/14 00:48:09;;;;;;;;;2.00;2.00;;;;;10.53;56.83;100466.53;5047685;28;45456;-77
2023/04/14 00:50:35;;;;;;;;;2.33;2.33;;;;;10.46;56.49;100454.84;5061595;27;45489;-77
2023/04/14 00:53:01;;;;;;;;;3.67;2.33;;;;;10.28;56.91;100424.75;5078500;27;45443;-77
2023/04/14 00:55:26;;;;;;;;;3.00;3.00;;;;;9.55;56.75;100305.22;5078366;28;48258;-77
2023/04/14 00:57:53;;;;;;;;;4.33;3.00;;;;;10.68;57.02;100484.63;5061416;28;45450;-78
2023/04/14 01:00:19;;;;;;;;;3.67;3.67;;;;;10.37;57.07;100455.72;5060927;28;45309;-79
2023/04/14 01:02:44;;;;;;;;;4.67;4.67;;;;;10.53;57.55;100492.28;5060914;28;45418;-78
2023/04/14 01:05:09;;;;;;;;;4.00;4.00;;;;;10.50;57.61;100481.97;5061439;28;47641;-78
2023/04/14 01:07:36;;;;;;;;;4.00;4.00;;;;;10.34;57.27;100450.72;5078259;27;45390;-80
2023/04/14 01:10:02;;;;;;;;;3.00;3.00;;;;;10.51;57.32;100484.47;5078767;27;45293;-78
2023/04/14 01:13:08;;;;;;;;;5.00;4.00;;;;;10.51;57.60;100486.28;5078431;28;45478;-78
2023/04/14 01:16:02;;;;;;;;;4.00;2.33;;;;;10.41;57.68;100465.09;5078350;28;48759;-77
2023/04/14 01:18:40;;;;;;;;;4.00;4.00;;;;;10.31;57.61;100451.03;5074907;28;45438;-78
2023/04/14 01:21:12;;;;;;;;;4.00;4.00;;;;;10.10;58.19;100432.66;5080774;28;45291;-79
2023/04/14 01:23:55;;;;;;;;;4.00;4.00;;;;;9.94;58.04;100409.41;5062329;28;45507;-78
2023/04/14 01:26:30;;;;;;;;;3.00;3.00;;;;;10.35;58.56;100486.94;5078662;28;46501;-76
2023/04/14 01:28:59;;;;;;;;;3.33;3.33;;;;;10.04;58.04;100438.56;5079881;28;45610;-77
2023/04/14 01:31:27;;;;;;;;;2.00;2.00;;;;;10.32;58.35;100489.91;5061173;28;45459;-77
2023/04/14 01:34:14;;;;;;;;;2.00;2.00;;;;;10.33;58.12;100492.41;5061433;28;45605;-77
2023/04/14 01:36:43;;;;;;;;;3.00;3.00;;;;;9.42;58.21;100340.09;5077841;27;47953;-78
2023/04/14 01:39:13;;;;;;;;;4.00;4.00;;;;;10.01;58.41;100434.41;5060569;28;45451;-78
2023/04/14 01:41:43;;;;;;;;;5.67;5.33;;;;;9.92;58.57;100434.44;5078007;27;45309;-78
2023/04/14 01:44:10;;;;;;;;;3.00;3.00;;;;;10.29;59.03;100487.53;5078111;27;45584;-78
2023/04/14 01:46:36;;;;;;;;;5.33;5.33;;;;;10.27;58.51;100494.81;5077082;27;47363;-75
2023/04/14 01:49:02;;;;;;;;;8.67;6.67;;;;;10.13;58.86;100474.03;5078709;27;45264;-75
2023/04/14 01:51:29;;;;;;;;;6.33;6.00;;;;;6.98;59.28;99973.66;5062012;28;45393;-77
2023/04/14 01:53:58;;;;;;;;;9.00;7.67;;;;;9.71;59.82;100442.63;5086172;28;45288;-77
2023/04/14 01:56:24;;;;;;;;;11.00;6.67;;;;;9.62;60.02;100432.91;5077910;27;48246;-77
2023/04/14 01:58:53;;;;;;;;;5.33;5.33;;;;;9.79;60.16;100450.69;5077266;28;45306;-77
2023/04/14 02:01:19;;;;;;;;;6.67;6.00;;;;;9.95;60.12;100481.94;5060204;28;45413;-78
2023/04/14 02:03:47;;;;;;;;;8.00;8.00;;;;;9.75;60.32;100454.63;5078705;27;45876;-78
2023/04/14 02:06:14;;;;;;;;;7.00;7.00;;;;;9.85;60.80;100483.81;5078551;28;46439;-77
2023/04/14 02:08:41;;;;;;;;;6.00;6.00;;;;;9.67;60.62;100458.00;5059978;28;45625;-76
2023/04/14 02:11:08;;;;;;;;;6.33;5.67;;;;;9.50;60.83;100440.19;5078735;27;45535;-78
2023/04/14 02:13:36;;;;;;;;;7.33;6.00;;;;;9.59;61.17;100459.69;5059951;28;45399;-78
2023/04/14 02:16:04;;;;;;;;;7.00;7.00;;;;;8.93;61.07;100378.34;5078028;27;45773;-78
2023/04/14 02:18:32;;;;;;;;;5.33;5.00;;;;;9.40;61.39;100445.50;5061099;28;45371;-78
2023/04/14 02:21:00;;;;;;;;;8.00;7.33;;;;;9.65;61.19;100486.53;5080255;28;45210;-78
2023/04/14 02:23:25;;;;;;;;;7.00;6.00;;;;;9.63;61.49;100492.97;5079229;27;45511;-78
2023/04/14 02:25:56;;;;;;;;;9.00;6.67;;;;;9.49;61.34;100457.09;5079202;28;45532;-77
2023/04/14 02:28:28;;;;;;;;;6.00;6.00;;;;;9.50;61.62;100481.81;5079043;28;45268;-77
2023/04/14 02:30:58;;;;;;;;;7.33;6.67;;;;;9.49;61.83;100474.84;5059667;28;45458;-77
2023/04/14 02:33:33;;;;;;;;;4.33;4.33;;;;;9.48;61.96;100473.16;5060019;28;45592;-77
2023/04/14 02:36:05;;;;;;;;;5.33;5.33;;;;;9.48;62.10;100474.00;5078477;27;46790;-78
2023/04/14 02:38:37;;;;;;;;;8.00;5.67;;;;;7.79;61.68;100184.91;5082174;28;45477;-77
2023/04/14 02:41:09;;;;;;;;;6.33;6.33;;;;;9.18;61.59;100410.53;5077808;28;45542;-77
2023/04/14 02:43:42;;;;;;;;;5.33;5.33;;;;;9.46;61.93;100465.34;5060720;28;45712;-78
2023/04/14 02:46:10;;;;;;;;;4.33;4.33;;;;;9.40;62.63;100471.19;5076538;27;47330;-79
2023/04/14 02:48:38;;;;;;;;;4.00;4.00;;;;;8.06;62.28;100245.94;5059173;28;45518;-78
2023/04/14 02:51:07;;;;;;;;;4.67;4.67;;;;;9.15;62.16;100431.03;5059657;28;45336;-76
2023/04/14 02:53:34;;;;;;;;;4.00;4.00;;;;;9.06;62.65;100401.91;5042836;28;45637;-78
2023/04/14 02:56:00;;;;;;;;;5.00;4.67;;;;;8.92;62.62;100384.63;5077751;28;46453;-78
2023/04/14 02:58:28;;;;;;;;;4.00;4.00;;;;;9.22;62.80;100430.50;5059612;28;46152;-77
2023/04/14 03:00:55;;;;;;;;;3.00;2.33;;;;;7.93;62.46;100213.59;5059642;28;45258;-77
2023/04/14 03:03:22;;;;;;;;;7.00;7.00;;;;;9.33;62.52;100443.56;5059671;28;45442;-78
2023/04/14 03:05:48;;;;;;;;;4.33;4.00;;;;;9.30;62.41;100439.41;5077665;27;45307;-77
2023/04/14 03:08:14;;;;;;;;;5.00;5.00;;;;;9.34;62.44;100432.00;5059007;28;46046;-78
2023/04/14 03:10:43;;;;;;;;;5.00;5.00;;;;;9.11;62.71;100407.63;5059442;28;45618;-75
2023/04/14 03:13:10;;;;;;;;;6.00;5.00;;;;;9.20;62.67;100416.50;5077730;28;45314;-76
2023/04/14 03:15:37;;;;;;;;;6.00;5.00;;;;;8.95;62.66;100386.97;5059029;28;48267;-77
2023/04/14 03:18:04;;;;;;;;;4.67;4.67;;;;;9.31;62.54;100425.16;5077100;27;45506;-76
2023/04/14 03:20:31;;;;;;;;;3.33;3.00;;;;;9.29;62.65;100427.13;5076107;28;45569;-79
2023/04/14 03:23:03;;;;;;;;;6.33;5.00;;;;;9.25;62.41;100431.03;5059523;28;45298;-75
2023/04/14 03:25:31;;;;;;;;;4.00;4.00;;;;;9.26;63.09;100422.09;5075029;28;47647;-77
2023/04/14 03:28:01;;;;;;;;;4.00;4.00;;;;;9.00;62.97;100394.50;5076141;28;45510;-78
2023/04/14 03:30:29;;;;;;;;;3.67;3.67;;;;;8.97;63.24;100398.28;5059072;28;45466;-78
2023/04/14 03:33:11;;;;;;;;;5.33;5.33;;;;;8.60;63.47;100350.47;5076323;27;45429;-78
2023/04/14 03:35:36;;;;;;;;;3.33;3.33;;;;;8.87;63.64;100404.59;5077466;27;45456;-78
2023/04/14 03:38:07;;;;;;;;;5.33;3.67;;;;;8.64;63.93;100362.47;5077490;28;45202;-78
2023/04/14 03:40:37;;;;;;;;;4.00;4.00;;;;;9.04;63.50;100425.09;5075900;28;45365;-78
2023/04/14 03:43:06;;;;;;;;;4.00;4.00;;;;;8.97;63.41;100406.22;5059382;28;45577;-76
2023/04/14 03:45:32;;;;;;;;;5.50;4.50;;;;;8.48;63.34;100335.72;5076803;28;46651;-78
2023/04/14 03:48:01;;;;;;;;;5.33;4.00;;;;;8.68;63.61;100363.88;5072332;28;45454;-78
2023/04/14 03:50:30;;;;;;;;;3.33;3.33;;;;;8.73;64.19;100366.91;5059297;28;45398;-78
2023/04/14 03:52:58;;;;;;;;;3.00;3.00;;;;;8.82;64.09;100403.19;5077457;27;45469;-78
2023/04/14 03:55:26;;;;;;;;;5.67;4.00;;;;;8.99;63.88;100425.47;5081601;28;45540;-79
2023/04/14 03:57:55;;;;;;;;;4.33;4.33;;;;;8.72;63.91;100386.47;5077711;28;45291;-77
2023/04/14 04:00:22;;;;;;;;;5.00;5.00;;;;;9.00;64.13;100415.72;5077656;28;45566;-77
2023/04/14 04:02:49;;;;;;;;;5.00;5.00;;;;;8.99;63.95;100419.34;5077624;27;45471;-78
2023/04/14 04:05:14;;;;;;;;;5.33;5.00;;;;;8.47;63.96;100334.03;5058917;28;48481;-79
2023/04/14 04:07:43;;;;;;;;;4.00;4.00;;;;;8.98;64.16;100409.72;5058665;28;46062;-78
2023/04/14 04:10:12;;;;;;;;;3.67;3.67;;;;;8.98;63.93;100413.19;5058907;28;45349;-78
2023/04/14 04:12:41;;;;;;;;;6.00;4.33;;;;;8.08;63.81;100283.69;5058789;27;45558;-78
2023/04/14 04:15:07;;;;;;;;;4.00;4.00;;;;;8.52;64.12;100337.09;5058494;28;47626;-77
2023/04/14 04:17:34;;;;;;;;;5.00;5.00;;;;;8.09;64.23;100292.47;5058172;28;45289;-78
2023/04/14 04:20:05;;;;;;;;;5.33;4.33;;;;;8.45;64.32;100357.19;5077803;28;45311;-78
2023/04/14 04:22:35;;;;;;;;;6.00;5.00;;;;;8.72;64.28;100398.88;5077157;27;45464;-77
2023/04/14 04:25:01;;;;;;;;;6.00;6.00;;;;;8.55;64.41;100363.31;5078443;28;48046;-77
2023/04/14 04:27:27;;;;;;;;;5.33;4.33;;;;;8.88;64.47;100400.97;5079495;28;45621;-78
2023/04/14 04:29:53;;;;;;;;;8.00;6.00;;;;;8.89;64.32;100400.81;5076922;28;45455;-79
2023/04/14 04:32:19;;;;;;;;;7.00;6.67;;;;;8.43;64.38;100316.75;5076832;28;45363;-77
2023/04/14 04:34:46;;;;;;;;;4.33;4.00;;;;;8.91;64.58;100416.56;5058300;27;48329;-79
2023/04/14 04:37:12;;;;;;;;;5.33;5.33;;;;;8.76;64.50;100384.34;5079768;28;45540;-77
2023/04/14 04:39:38;;;;;;;;;5.67;5.67;;;;;8.49;64.99;100355.94;5080434;27;45460;-79
2023/04/14 04:42:05;;;;;;;;;5.00;5.00;;;;;8.62;65.28;100364.44;5081059;28;45791;-79
2023/04/14 04:44:32;;;;;;;;;6.67;6.00;;;;;8.53;65.35;100359.97;5061745;28;47766;-77
2023/04/14 04:46:58;;;;;;;;;5.67;5.00;;;;;7.88;65.09;100243.16;5077672;27;46196;-77
2023/04/14 04:49:23;;;;;;;;;5.00;5.00;;;;;8.84;64.66;100393.28;5042300;28;45486;-79
2023/04/14 04:51:49;;;;;;;;;6.00;5.00;;;;;8.63;64.56;100349.38;5041855;28;45588;-78
2023/04/14 04:54:15;;;;;;;;;5.67;5.67;;;;;8.77;64.34;100365.66;5043198;28;48301;-78
2023/04/14 04:56:40;;;;;;;;;6.00;4.33;;;;;8.97;64.29;100385.03;5042258;28;45309;-76
2023/04/14 04:59:06;;;;;;;;;8.33;5.33;;;;;8.43;64.14;100291.09;5043185;28;45264;-77
2023/04/14 05:01:31;;;;;;;;;5.00;4.00;;;;;8.80;63.79;100330.91;5042001;28;45671;-78
2023/04/14 05:03:57;;;;;;;;;4.33;4.33;;;;;9.00;63.72;100358.22;5059345;28;46453;-78
2023/04/14 05:06:23;;;;;;;;;7.33;6.00;;;;;9.17;63.70;100379.69;5041222;28;45788;-77
2023/04/14 05:08:52;;;;;;;;;7.00;6.00;;;;;8.94;63.96;100347.34;5057612;28;45356;-80
2023/04/14 05:11:18;;;;;;;;;4.67;4.00;;;;;9.12;63.76;100372.16;5042061;28;45264;-78
2023/04/14 05:13:44;;;;;;;;;6.00;6.00;;;;;8.89;63.87;100344.31;5055436;28;47038;-78
2023/04/14 05:16:12;;;;;;;;;4.67;4.00;;;;;8.83;64.06;100341.25;5061488;28;45288;-79
2023/04/14 05:18:37;;;;;;;;;4.33;4.33;;;;;8.39;64.11;100278.25;5061419;28;45891;-79
2023/04/14 05:21:12;;;;;;;;;6.00;6.00;;;;;8.84;64.21;100334.97;5079581;27;45186;-79
2023/04/14 05:23:41;;;;;;;;;5.67;5.33;;;;;8.22;64.30;100264.75;5061252;27;47579;-80
2023/04/14 05:26:07;;;;;;;;;3.67;3.67;;;;;9.03;64.33;100362.41;5079985;27;46332;-77
2023/04/14 05:28:33;;;;;;;;;7.00;7.00;;;;;9.07;64.43;100353.19;5059774;28;45536;-79
2023/04/14 05:30:58;;;;;;;;;7.33;6.00;;;;;8.74;64.31;100310.28;5046726;28;45472;-79
2023/04/14 05:33:24;;;;;;;;;6.67;5.67;;;;;8.69;64.29;100296.63;5058381;28;47489;-78
2023/04/14 05:35:50;;;;;;;;;9.00;7.33;;;;;8.12;64.20;100196.88;5057379;27;45835;-78
2023/04/14 05:38:16;;;;;;;;;6.00;6.00;;;;;8.67;63.99;100288.00;5080995;27;45256;-81
2023/04/14 05:40:42;;;;;;;;;10.00;8.00;;;;;8.86;63.97;100318.09;5071279;28;45632;-78
2023/04/14 05:43:07;;;;;;;;;11.33;8.00;;;;;9.10;64.31;100356.38;5060121;28;46795;-77
2023/04/14 05:45:33;;;;;;;;;7.33;6.67;;;;;8.97;63.94;100325.84;5073745;27;45458;-76
2023/04/14 05:47:58;;;;;;;;;11.67;11.67;;;;;8.73;64.09;100279.47;5098765;27;45427;-78
2023/04/14 05:50:23;;;;;;;;;8.00;7.00;;;;;9.28;63.80;100348.53;5060918;27;45680;-79
2023/04/14 05:52:50;;;;;;;;;11.67;9.33;;;;;9.29;63.67;100352.00;5073590;27;45966;-78
2023/04/14 05:55:16;;;;;;;;;12.00;12.00;;;;;8.83;63.19;100266.19;5066753;28;45726;-78
2023/04/14 05:57:42;;;;;;;;;12.00;8.33;;;;;9.17;63.58;100338.06;5077625;28;45587;-76
2023/04/14 06:00:08;;;;;;;;;10.67;8.33;;;;;9.17;63.59;100343.38;5078692;28;45511;-78
2023/04/14 06:02:34;;;;;;;;;9.00;9.00;;;;;9.06;63.76;100322.34;5076720;27;45316;-77
2023/04/14 06:05:00;;;;;;;;;8.33;8.33;;;;;9.09;63.85;100319.41;5077278;28;45752;-76
2023/04/14 06:07:26;;;;;;;;;9.00;8.00;;;;;8.88;63.62;100279.00;5078452;28;45210;-76
2023/04/14 06:09:51;;;;;;;;;9.00;8.33;;;;;9.22;63.66;100341.16;5074170;27;45369;-78
2023/04/14 06:12:17;;;;;;;;;9.67;9.00;;;;;9.27;63.79;100325.63;5046843;28;47995;-78
2023/04/14 06:14:42;;;;;;;;;11.00;7.00;;;;;9.15;63.74;100303.75;5091518;27;45243;-76
2023/04/14 06:17:07;;;;;;;;;11.33;10.67;;;;;9.43;63.47;100333.81;5084202;27;45231;-76
2023/04/14 06:19:33;;;;;;;;;7.67;7.67;;;;;9.52;63.31;100326.75;5064078;28;45899;-78
2023/04/14 06:21:58;;;;;;;;;14.00;14.00;;;;;9.42;62.80;100312.72;5057747;28;46429;-79
2023/04/14 06:24:24;;;;;;;;;12.00;10.33;;;;;9.23;63.22;100284.47;5040546;28;45466;-79
2023/04/14 06:26:49;;;;;;;;;11.67;11.67;;;;;9.50;63.14;100328.72;5066490;27;45426;-79
2023/04/14 06:29:15;;;;;;;;;7.33;7.00;;;;;8.83;63.14;100227.28;5061143;28;45318;-78
2023/04/14 06:31:40;;;;;;;;;14.67;13.00;;;;;9.11;63.15;100253.81;5078193;27;46023;-76
2023/04/14 06:34:06;;;;;;;;;14.33;13.00;;;;;9.14;63.40;100249.03;5059393;27;45461;-80
2023/04/14 06:36:31;;;;;;;;;13.00;13.00;;;;;8.77;63.47;100206.63;5076763;28;45391;-76
2023/04/14 06:38:57;;;;;;;;;11.00;11.00;;;;;9.19;63.28;100269.81;5076736;27;45556;-77
2023/04/14 06:41:23;;;;;;;;;13.00;13.00;;;;;9.62;62.80;100327.56;5077595;28;45584;-76
2023/04/14 06:43:49;;;;;;;;;15.00;12.67;;;;;9.56;63.32;100306.06;5076628;28;45560;-78
2023/04/14 06:46:15;;;;;;;;;13.00;13.00;;;;;9.67;63.29;100308.53;5077725;28;45236;-75
2023/04/14 06:48:40;;;;;;;;;15.33;14.00;;;;;9.34;62.93;100248.94;5077479;28;45499;-77
2023/04/14 06:51:09;;;;;;;;;16.00;14.00;;;;;9.47;62.98;100251.25;5075198;27;47549;-76
2023/04/14 06:53:34;;;;;;;;;16.00;14.67;;;;;9.79;62.99;100296.72;5059016;28;45576;-77
2023/04/14 06:56:00;;;;;;;;;14.67;13.67;;;;;9.57;63.09;100244.03;5065531;27;45975;-75
2023/04/14 06:58:28;;;;;;;;;11.67;11.67;;;;;9.89;62.64;100281.56;5074405;27;45593;-75
2023/04/14 07:00:58;;;;;;;;;15.33;12.67;;;;;9.98;61.91;100230.19;5065626;27;47886;-76
2023/04/14 07:03:25;;;;;;;;;14.67;14.00;;;;;10.40;60.71;100252.63;5058156;28;46207;-72
2023/04/14 07:05:51;;;;;;;;;16.00;14.67;;;;;10.91;60.42;100281.91;5078811;27;45359;-73
2023/04/14 07:08:18;;;;;;;;;16.00;12.33;;;;;10.96;58.98;100249.50;5083693;27;45451;-73
2023/04/14 07:10:44;;;;;;;;;12.33;10.67;;;;;11.34;58.43;100258.00;5077050;27;45447;-75
2023/04/14 07:13:09;;;;;;;;;15.00;14.33;;;;;11.58;57.58;100226.09;5076541;28;45299;-78
2023/04/14 07:15:34;;;;;;;;;12.00;10.00;;;;;12.10;56.21;100260.53;5075158;27;45412;-74
2023/04/14 07:18:00;;;;;;;;;9.00;9.00;;;;;12.22;55.39;100253.03;5076912;27;45431;-76
2023/04/14 07:20:25;;;;;;;;;13.67;11.67;;;;;12.56;54.84;100264.34;5077057;28;45289;-76
2023/04/14 07:22:51;;;;;;;;;14.33;14.00;;;;;12.58;54.35;100275.66;5086764;27;45484;-76
2023/04/14 07:25:17;;;;;;;;;11.67;11.33;;;;;12.52;54.55;100263.00;5077273;27;45522;-75
2023/04/14 07:27:43;;;;;;;;;17.00;14.33;;;;;12.11;54.40;100195.56;5084114;27;45372;-76
2023/04/14 07:30:08;;;;;;;;;12.33;12.00;;;;;12.40;54.38;100251.84;5076631;28;45229;-76
2023/04/14 07:32:34;;;;;;;;;12.67;11.00;;;;;12.22;54.79;100240.56;5093071;27;45426;-74
2023/04/14 07:34:59;;;;;;;;;11.67;11.00;;;;;12.37;55.25;100265.50;5071795;27;45573;-75
2023/04/14 07:37:25;;;;;;;;;12.33;11.33;;;;;12.33;54.61;100266.84;5058138;28;45338;-76
2023/04/14 07:39:50;;;;;;;;;11.67;11.67;;;;;12.24;55.09;100261.72;5072919;27;45606;-75
2023/04/14 07:42:16;;;;;;;;;11.00;11.00;;;;;12.04;55.47;100246.03;5066775;27;45419;-75
2023/04/14 07:44:41;;;;;;;;;12.33;11.67;;;;;12.07;56.08;100250.19;5050440;27;45378;-74
2023/04/14 07:47:07;;;;;;;;;12.33;12.33;;;;;11.93;56.07;100226.88;5054132;27;45726;-74
2023/04/14 07:49:32;;;;;;;;;10.67;10.00;;;;;12.00;55.62;100243.84;5081908;27;45380;-75
2023/04/14 07:51:58;;;;;;;;;11.67;10.33;;;;;11.98;55.62;100240.53;5086486;27;45348;-76
2023/04/14 07:54:23;;;;;;;;;11.00;11.00;;;;;12.07;55.65;100237.72;5074377;27;45560;-75
2023/04/14 07:56:49;;;;;;;;;11.33;9.33;;;;;11.46;55.78;100140.41;5057319;28;45569;-78
2023/04/14 07:59:14;;;;;;;;;11.00;9.67;;;;;12.15;55.46;100232.38;5079665;27;45521;-83
2023/04/14 08:01:40;;;;;;;;;6.67;6.67;;;;;12.24;55.67;100203.91;5065046;27;45406;-80
2023/04/14 08:04:06;;;;;;;;;10.33;10.33;;;;;12.31;54.56;100172.91;5060207;28;45274;-80
2023/04/14 08:06:31;;;;;;;;;9.00;9.00;;;;;12.37;54.28;100161.56;5058885;28;45562;-78
2023/04/14 08:08:57;;;;;;;;;7.67;7.67;;;;;12.71;53.90;100221.81;5077759;27;46768;-78
2023/04/14 08:11:23;;;;;;;;;8.33;7.33;;;;;12.59;54.50;100218.66;5080476;27;45560;-79
2023/04/14 08:13:49;;;;;;;;;9.67;9.67;;;;;12.39;54.52;100212.03;5090567;27;45467;-79
2023/04/14 08:16:15;;;;;;;;;7.00;7.00;;;;;12.10;54.92;100188.56;5082873;27;45505;-81
2023/04/14 08:18:41;;;;;;;;;7.00;7.00;;;;;12.02;55.82;100215.25;5078437;28;46221;-81
2023/04/14 08:21:07;;;;;;;;;8.67;7.33;;;;;11.40;55.91;100135.72;5080162;28;45304;-80
2023/04/14 08:23:33;;;;;;;;;10.00;8.33;;;;;11.82;56.21;100202.25;5063665;28;45497;-79
2023/04/14 08:25:58;;;;;;;;;8.33;8.00;;;;;11.57;56.68;100179.19;5083662;28;45412;-78
2023/04/14 08:28:24;;;;;;;;;10.00;8.67;;;;;11.69;57.39;100223.16;5082472;27;46159;-80
2023/04/14 08:30:49;;;;;;;;;7.67;7.00;;;;;11.22;57.16;100143.03;5057241;27;45299;-81
2023/04/14 08:33:15;;;;;;;;;7.00;7.00;;;;;11.70;57.57;100226.66;5075125;28;45372;-78
2023/04/14 08:35:41;;;;;;;;;6.00;6.00;;;;;11.45;57.44;100189.34;5061111;28;45361;-79
2023/04/14 08:38:06;;;;;;;;;7.67;7.67;;;;;11.03;57.47;100122.03;5083713;27;45389;-79
2023/04/14 08:40:42;;;;;;;;;5.00;5.00;;;;;11.29;57.83;100165.34;5071018;28;45402;-80
2023/04/14 08:43:09;;;;;;;;;6.67;5.67;;;;;11.67;58.13;100211.84;5065641;27;45464;-81
2023/04/14 08:45:37;;;;;;;;;6.33;6.00;;;;;11.80;57.21;100214.84;5063168;27;45426;-82
2023/04/14 08:48:03;;;;;;;;;7.67;7.67;;;;;11.93;57.23;100202.91;5066101;28;47893;-80
2023/04/14 08:50:36;;;;;;;;;6.00;6.00;;;;;11.05;57.08;100078.31;5071607;27;45855;-80
2023/04/14 08:53:07;;;;;;;;;9.00;7.67;;;;;11.93;57.15;100200.22;5074414;27;45610;-79
2023/04/14 08:55:34;;;;;;;;;6.33;6.33;;;;;11.96;56.89;100178.59;5076321;28;45556;-80
2023/04/14 08:58:01;;;;;;;;;7.33;7.00;;;;;12.06;56.64;100195.25;5084323;27;46283;-80
2023/04/14 09:00:26;;;;;;;;;7.00;7.00;;;;;11.56;56.83;100129.59;5094330;27;45451;-79
2023/04/14 09:02:53;;;;;;;;;4.67;4.67;;;;;11.55;56.97;100120.78;5084453;27;45233;-79
2023/04/14 09:05:19;;;;;;;;;6.00;6.00;;;;;10.73;56.84;99993.97;5079656;28;45541;-79
2023/04/14 09:07:45;;;;;;;;;9.33;8.00;;;;;11.79;57.60;100157.25;5069982;28;45476;-83
2023/04/14 09:10:11;;;;;;;;;10.00;9.33;;;;;11.48;57.20;100095.84;5079338;27;45602;-79
2023/04/14 09:12:39;;;;;;;;;6.33;6.33;;;;;11.56;56.84;100109.13;5062217;28;45500;-80
2023/04/14 09:15:05;;;;;;;;;5.67;5.00;;;;;11.99;56.41;100178.25;5059327;28;45473;-79
2023/04/14 09:17:30;;;;;;;;;7.00;7.00;;;;;11.27;56.49;100056.41;5086207;27;46173;-79
2023/04/14 09:19:56;;;;;;;;;7.00;7.00;;;;;12.05;56.45;100180.25;5071248;28;45411;-80
2023/04/14 09:22:22;;;;;;;;;6.67;6.67;;;;;12.02;56.41;100168.13;5067172;27;45463;-78
2023/04/14 09:24:49;;;;;;;;;5.00;5.00;;;;;11.64;56.81;100099.50;5101879;27;45457;-79
2023/04/14 09:27:14;;;;;;;;;5.00;5.00;;;;;11.38;56.51;100049.91;5064968;27;47163;-80
2023/04/14 09:29:40;;;;;;;;;5.33;5.33;;;;;12.04;56.87;100159.94;5070152;28;45784;-77
2023/04/14 09:32:06;;;;;;;;;6.67;6.67;;;;;11.96;56.52;100141.28;5068816;28;45471;-77
2023/04/14 09:34:32;;;;;;;;;5.00;5.00;;;;;10.98;56.93;99994.84;5057254;28;45501;-79
2023/04/14 09:37:05;;;;;;;;;6.67;6.67;;;;;11.51;57.45;100094.66;5065786;27;45829;-78
2023/04/14 09:39:32;;;;;;;;;9.00;9.00;;;;;11.48;57.47;100085.19;5086744;27;45466;-79
2023/04/14 09:41:59;;;;;;;;;4.00;4.00;;;;;11.34;57.85;100072.53;5064010;27;45405;-78
2023/04/14 09:44:24;;;;;;;;;5.33;5.33;;;;;11.30;57.81;100044.59;5084916;27;45617;-77
2023/04/14 09:47:01;;;;;;;;;5.00;5.00;;;;;11.65;57.57;100096.69;5061984;27;48470;-80
2023/04/14 09:49:28;;;;;;;;;6.00;5.00;;;;;11.87;56.76;100101.34;5074333;27;45767;-80
2023/04/14 09:51:54;;;;;;;;;5.00;5.00;;;;;12.04;56.81;100125.31;5051166;27;45576;-85
2023/04/14 09:54:24;;;;;;;;;4.00;3.67;;;;;12.16;57.36;100129.28;5048869;28;46624;-78
2023/04/14 09:56:51;;;;;;;;;5.33;5.33;;;;;11.65;57.40;100043.41;5074003;27;47287;-80
2023/04/14 09:59:29;;;;;;;;;7.67;4.00;;;;;12.13;56.84;100106.47;5057863;28;45369;-78
2023/04/14 10:01:58;;;;;;;;;4.67;4.00;;;;;12.25;56.73;100112.28;5076355;27;45359;-78
2023/04/14 10:04:25;;;;;;;;;6.33;5.00;;;;;12.30;56.90;100107.25;5066785;28;45535;-78
2023/04/14 10:06:54;;;;;;;;;4.67;4.67;;;;;11.97;56.14;100047.06;5079782;27;46804;-78
2023/04/14 10:09:21;;;;;;;;;6.67;3.00;;;;;12.37;56.53;100118.91;5096161;27;45447;-79
2023/04/14 10:12:05;;;;;;;;;5.00;5.00;;;;;11.78;56.43;100009.13;5104327;27;45410;-78
2023/04/14 10:14:32;;;;;;;;;2.00;2.00;;;;;12.26;55.84;100073.97;5061698;28;45321;-78
2023/04/14 10:16:59;;;;;;;;;2.67;2.67;;;;;12.31;55.93;100111.59;5079208;28;46925;-76
2023/04/14 10:19:25;;;;;;;;;4.67;4.00;;;;;12.10;57.00;100112.13;5060496;28;45427;-78
2023/04/14 10:21:51;;;;;;;;;8.00;7.33;;;;;12.19;57.21;100110.28;5072177;27;45600;-79
2023/04/14 10:24:22;;;;;;;;;8.00;6.33;;;;;12.01;56.53;100069.69;5074223;27;45631;-79
2023/04/14 10:26:48;;;;;;;;;8.33;5.33;;;;;11.84;56.55;100020.97;5069197;27;45844;-80
2023/04/14 10:29:15;;;;;;;;;3.67;2.00;;;;;12.36;56.84;100097.75;5079751;27;46117;-79
2023/04/14 10:31:45;;;;;;;;;4.00;3.33;;;;;12.41;56.13;100103.38;5062971;27;45253;-81
2023/04/14 10:34:12;;;;;;;;;5.00;4.00;;;;;11.67;56.49;99996.16;5072508;27;45433;-81
2023/04/14 10:36:39;;;;;;;;;3.00;2.00;;;;;11.87;56.43;100026.78;5077283;27;48403;-80
2023/04/14 10:39:06;;;;;;;;;4.33;4.33;;;;;12.17;56.54;100066.97;5084970;27;45484;-77
2023/04/14 10:41:52;;;;;;;;;5.00;5.00;;;;;12.18;56.20;100068.66;5061343;28;45394;-78
2023/04/14 10:44:30;;;;;;;;;4.33;3.00;;;;;12.16;56.14;100052.00;5062870;28;45339;-81
2023/04/14 10:46:58;;;;;;;;;4.00;3.00;;;;;11.31;56.21;99909.69;5059721;27;47587;-78
2023/04/14 10:49:48;;;;;;;;;3.33;2.67;;;;;12.19;56.46;100067.63;5042410;28;45411;-78
2023/04/14 10:52:13;;;;;;;;;3.67;3.33;;;;;12.14;56.32;100076.16;5040727;28;45483;-80
2023/04/14 10:54:59;;;;;;;;;6.67;6.33;;;;;11.95;56.72;100049.06;5039854;28;45521;-79
2023/04/14 10:57:26;;;;;;;;;4.00;2.67;;;;;11.73;57.12;100000.78;5046890;27;47749;-81
2023/04/14 10:59:57;;;;;;;;;3.00;3.00;;;;;12.21;56.79;100057.63;5101020;27;45228;-78
2023/04/14 11:02:26;;;;;;;;;5.00;3.67;;;;;12.36;56.98;100055.09;5080113;27;45534;-83
2023/04/14 11:05:10;;;;;;;;;3.67;3.00;;;;;12.26;56.34;100015.34;5081487;27;45516;-81
2023/04/14 11:07:47;;;;;;;;;5.00;5.00;;;;;12.01;56.78;99976.44;5081117;27;46799;-81
2023/04/14 11:10:16;;;;;;;;;5.33;4.00;;;;;12.64;56.14;100050.16;5076191;27;45286;-80
2023/04/14 11:12:47;;;;;;;;;5.00;4.00;;;;;12.54;55.51;100009.53;5075395;28;45542;-81
2023/04/14 11:15:15;;;;;;;;;3.67;3.33;;;;;12.52;56.29;100016.88;5061205;28;45554;-78
2023/04/14 11:17:42;;;;;;;;;6.00;5.00;;;;;12.77;57.11;100040.56;5098323;27;45457;-78
2023/04/14 11:20:21;;;;;;;;;7.00;4.00;;;;;12.60;56.33;100006.16;5079977;27;45455;-82
2023/04/14 11:22:49;;;;;;;;;5.00;4.00;;;;;12.87;57.97;100021.69;5074950;27;45215;-81
2023/04/14 11:25:17;;;;;;;;;3.00;3.00;;;;;12.38;56.96;99917.97;5061726;28;45490;-80
2023/04/14 11:27:45;;;;;;;;;4.00;4.00;;;;;12.65;57.68;99966.50;5060422;28;45368;-80
2023/04/14 11:30:16;;;;;;;;;6.67;5.67;;;;;11.35;58.22;99775.31;5060091;28;45408;-80